Hamilton, KS (66853)

7:40 PM CDT on April 01, 2015 (GMT -0500)
NonFedAWOS | | Change Station
CLOSE
Current Station
Personal Weather Station
Location: Eureka, KS
Elevation: 1208 ft
Nearby Weather Stations

Elev 1208 ft 37.85 °N, 96.29 °W | Updated 22 minutes ago

Clear
Clear
81 °F
Feels Like 80 °F
N
12
Wind Variable Wind from SSE
Gusts 20.0 mph

Today
High -- | Low -- °F
--% Chance of Precip.
Yesterday
High -- | Low -- °F
Precip. -- in
7:10 AM 7:47 PM
Waxing Gibbous, 94% visible
Pressure 29.64 in
Visibility 8.0 miles
Clouds Clear
Heat Index 80 °F
Dew Point 50 °F
Humidity 34%
Rainfall in
Snow Depth Not available.
UV 0 out of 12
Pollen 9.80 out of 12
Air Quality Not available.
Flu Activity Not available.
METAR KEMP 012353Z AUTO 14017G24KT 8SM CLR 24/14 A2965 RMK AO2 PK WND 16028/2310 SLP036 T02390144 10272 20239 56019

More Conditions Fewer Conditions

Pressure 29.64 in
Visibility 8.0 miles
Clouds Clear
Heat Index 80 °F
Dew Point 50 °F
Humidity 34%
Rainfall in
Snow Depth Not available.
UV 0 out of 12
Pollen 9.80 out of 12
Air Quality Not available.
Flu Activity Not available.
METAR KEMP 012353Z AUTO 14017G24KT 8SM CLR 24/14 A2965 RMK AO2 PK WND 16028/2310 SLP036 T02390144 10272 20239 56019

More Conditions Fewer Conditions

10-Day Weather Forecast

Almanac

Astronomy

Apr. 01, 2015 Rise Set
Actual Time
Civil Twilight
Nautical Twilight
Astronomical Twilight
Moon
Length of Visible Light
Length of Day
Tomorrow will be .
, % of the Moon is Illuminated

Today's Extremes

State Highs State Lows

Community

WunderPhotos

Upload Photos

1,810,136 photos uploaded!

WunderBlogs® & News

Nearby

Air Quality

  Air Quality AQ Index Pollutant
Not available.

Snow Depth

Station Depth Elevation

Earthquake Activity

City Distance Mag. Time & Date
Minimum magnitude displayed is 2.5.

Coastal Water Temperatures

Place Temperature

Stations

Nearby Weather Stations

Station Location Temp. Windchill Dew Point Humidity Wind Precip. Elev Updated Type